Time;durP1;ratioP1;P1;durP2;ratioP2;P2;SDS_P1;SDS_P2;PMS_P1;PMS_P2;Temp;Humidity;BMP_temperature;BMP_pressure;BME280_temperature;BME280_humidity;BME280_pressure;Samples;Min_cycle;Max_cycle;Signal;HPM_P1;HPM_P2
2023/03/28 00:01:57;;;;;;;15.03;2.37;;;1.30;99.90;;;;;;6371436;22;20457;-85
2023/03/28 00:04:23;;;;;;;17.27;3.00;;;1.20;99.90;;;;;;6342898;22;20048;-85
2023/03/28 00:06:49;;;;;;;11.77;2.23;;;1.20;99.90;;;;;;6342619;22;20443;-85
2023/03/28 00:09:15;;;;;;;15.67;2.40;;;1.20;99.90;;;;;;6345334;22;20018;-84
2023/03/28 00:11:43;;;;;;;15.87;2.70;;;1.20;99.90;;;;;;6371766;22;20333;-85
2023/03/28 00:14:12;;;;;;;9.50;2.30;;;1.20;99.90;;;;;;6370263;22;20046;-85
2023/03/28 00:16:40;;;;;;;10.90;2.47;;;1.10;99.90;;;;;;6373621;22;20011;-83
2023/03/28 00:19:14;;;;;;;14.77;2.40;;;1.10;99.90;;;;;;6371515;22;20063;-84
2023/03/28 00:21:45;;;;;;;12.10;2.37;;;1.80;99.90;;;;;;6343420;22;20097;-85
2023/03/28 00:24:13;;;;;;;12.37;2.50;;;1.10;99.90;;;;;;6342507;22;20006;-85
2023/03/28 00:26:41;;;;;;;15.00;3.00;;;1.10;99.90;;;;;;6341496;22;20021;-85
2023/03/28 00:29:09;;;;;;;12.77;3.03;;;1.00;99.90;;;;;;6370612;22;20015;-85
2023/03/28 00:31:37;;;;;;;12.93;2.30;;;1.10;99.90;;;;;;6371047;22;20314;-85
2023/03/28 00:34:03;;;;;;;16.10;2.47;;;1.00;99.90;;;;;;6341717;22;20438;-84
2023/03/28 00:36:31;;;;;;;12.90;2.30;;;2.30;99.90;;;;;;6342699;22;20010;-85
2023/03/28 00:39:05;;;;;;;13.90;2.40;;;1.00;99.90;;;;;;6371260;22;20025;-85
2023/03/28 00:41:34;;;;;;;12.70;2.78;;;1.00;99.90;;;;;;6342212;22;20019;-85
2023/03/28 00:44:00;;;;;;;16.53;2.97;;;1.20;99.90;;;;;;6342421;22;20018;-85
2023/03/28 00:46:35;;;;;;;10.77;2.10;;;0.90;99.90;;;;;;6342746;22;20050;-85
2023/03/28 00:49:02;;;;;;;13.67;2.83;;;0.90;99.90;;;;;;6370215;22;20010;-86
2023/03/28 00:51:34;;;;;;;13.50;2.60;;;0.90;99.90;;;;;;6371087;22;20014;-84
2023/03/28 00:54:01;;;;;;;12.43;2.60;;;0.80;99.90;;;;;;6370594;22;20014;-85
2023/03/28 00:56:31;;;;;;;12.90;2.60;;;0.70;99.90;;;;;;6341060;22;20041;-85
2023/03/28 00:59:00;;;;;;;11.43;2.57;;;0.70;99.90;;;;;;6370983;22;20021;-85
2023/03/28 01:01:26;;;;;;;12.33;2.70;;;0.70;99.90;;;;;;6369836;22;20011;-85
2023/03/28 01:04:01;;;;;;;14.73;2.33;;;0.70;99.90;;;;;;6342832;22;20041;-85
2023/03/28 01:06:31;;;;;;;14.27;2.63;;;0.70;99.90;;;;;;6342926;22;20097;-84
2023/03/28 01:09:03;;;;;;;17.43;3.07;;;2.10;99.90;;;;;;6342101;22;20010;-85
2023/03/28 01:11:31;;;;;;;12.50;2.37;;;0.70;99.90;;;;;;6342492;22;20070;-85
2023/03/28 01:13:59;;;;;;;14.63;2.70;;;0.60;99.90;;;;;;6342587;22;20014;-85
2023/03/28 01:16:25;;;;;;;11.30;2.50;;;0.70;99.90;;;;;;6369863;22;20041;-85
2023/03/28 01:18:52;;;;;;;14.53;2.70;;;0.60;99.90;;;;;;6370434;22;20022;-85
2023/03/28 01:21:52;;;;;;;14.23;2.17;;;0.70;99.90;;;;;;6370444;22;20907;-84
2023/03/28 01:24:49;;;;;;;14.37;3.43;;;0.60;99.90;;;;;;6341105;22;20025;-85
2023/03/28 01:27:25;;;;;;;13.70;2.17;;;0.60;99.90;;;;;;6341962;22;20018;-85
2023/03/28 01:30:06;;;;;;;14.53;2.37;;;0.60;99.90;;;;;;6378644;22;20109;-85
2023/03/28 01:33:00;;;;;;;19.70;2.93;;;0.60;99.90;;;;;;6369821;22;20560;-84
2023/03/28 01:35:54;;;;;;;16.02;2.42;;;0.60;99.90;;;;;;6342654;22;20014;-84
2023/03/28 01:38:39;;;;;;;15.63;2.77;;;0.60;99.90;;;;;;6341202;22;20011;-84
2023/03/28 01:41:13;;;;;;;13.33;2.40;;;0.50;99.90;;;;;;6344714;22;20320;-85
2023/03/28 01:44:07;;;;;;;12.13;2.58;;;0.50;99.90;;;;;;6342212;22;20011;-85
2023/03/28 01:46:43;;;;;;;12.23;2.30;;;0.50;99.90;;;;;;6345484;22;20014;-85
2023/03/28 01:49:25;;;;;;;18.40;2.67;;;0.50;99.90;;;;;;6343391;22;20044;-85
2023/03/28 01:52:00;;;;;;;11.10;2.57;;;1.40;99.90;;;;;;6341648;22;20025;-86
2023/03/28 01:54:32;;;;;;;11.47;2.60;;;0.40;99.90;;;;;;6370322;22;20025;-85
2023/03/28 01:57:20;;;;;;;14.10;2.23;;;0.40;99.90;;;;;;6370293;22;20011;-85
2023/03/28 01:59:54;;;;;;;21.97;3.03;;;0.30;99.90;;;;;;6341689;22;20442;-85
2023/03/28 02:02:35;;;;;;;15.50;2.80;;;0.30;99.90;;;;;;6339769;22;20019;-85
2023/03/28 02:05:06;;;;;;;10.63;2.40;;;0.30;99.90;;;;;;6339991;22;20041;-85
2023/03/28 02:07:53;;;;;;;17.33;3.27;;;0.30;99.90;;;;;;6369834;22;20022;-85
2023/03/28 02:10:24;;;;;;;13.43;2.40;;;0.10;99.90;;;;;;6369869;22;20010;-85
2023/03/28 02:12:59;;;;;;;14.07;2.50;;;0.20;99.90;;;;;;6368713;22;20022;-85
2023/03/28 02:15:27;;;;;;;12.90;3.37;;;0.20;99.90;;;;;;6341810;22;20011;-85
2023/03/28 02:18:15;;;;;;;13.63;2.77;;;0.20;99.90;;;;;;6370297;22;20006;-85
2023/03/28 02:20:43;;;;;;;15.67;3.10;;;0.20;99.90;;;;;;6340953;22;20470;-85
2023/03/28 02:23:33;;;;;;;13.67;2.63;;;0.20;99.90;;;;;;6369805;22;20085;-85
2023/03/28 02:25:59;;;;;;;20.17;2.87;;;0.20;99.90;;;;;;6341062;22;20018;-85
2023/03/28 02:28:25;;;;;;;15.83;2.33;;;0.30;99.90;;;;;;6342130;22;20023;-85
2023/03/28 02:30:52;;;;;;;14.43;3.57;;;0.30;99.90;;;;;;6370139;22;20018;-84
2023/03/28 02:33:32;;;;;;;19.40;2.57;;;0.30;99.90;;;;;;6340529;22;20021;-85
2023/03/28 02:36:17;;;;;;;14.80;2.80;;;0.20;99.90;;;;;;6341570;22;20446;-85
2023/03/28 02:39:12;;;;;;;14.97;2.60;;;0.20;99.90;;;;;;6342191;22;20006;-85
2023/03/28 02:42:05;;;;;;;17.23;3.13;;;0.20;99.90;;;;;;6358009;22;20014;-85
2023/03/28 02:44:40;;;;;;;15.27;2.40;;;0.20;99.90;;;;;;6341832;22;20021;-85
2023/03/28 02:47:30;;;;;;;15.23;3.13;;;0.20;99.90;;;;;;6340303;22;20010;-85
2023/03/28 02:50:07;;;;;;;15.93;3.50;;;0.20;99.90;;;;;;6342136;22;20021;-85
2023/03/28 02:53:01;;;;;;;10.60;2.27;;;0.20;99.90;;;;;;6341787;22;20021;-85
2023/03/28 02:55:34;;;;;;;11.77;2.77;;;0.20;99.90;;;;;;6341336;22;20019;-85
2023/03/28 02:58:20;;;;;;;15.40;2.53;;;0.20;99.90;;;;;;6341304;22;20007;-85
2023/03/28 03:00:47;;;;;;;16.73;2.83;;;0.50;99.90;;;;;;6342600;22;20022;-86
2023/03/28 03:03:16;;;;;;;12.53;2.53;;;0.10;99.90;;;;;;6342460;22;20093;-85
2023/03/28 03:05:49;;;;;;;19.87;2.90;;;0.10;99.90;;;;;;6351574;22;20026;-85
2023/03/28 03:08:26;;;;;;;12.57;3.03;;;0.20;99.90;;;;;;6374435;22;20038;-85
2023/03/28 03:10:52;;;;;;;15.17;3.17;;;0.20;99.90;;;;;;6347397;22;20019;-86
2023/03/28 03:13:18;;;;;;;12.27;2.97;;;0.10;99.90;;;;;;6344333;22;20022;-85
2023/03/28 03:15:45;;;;;;;13.07;2.97;;;0.10;99.90;;;;;;6343291;22;20010;-85
2023/03/28 03:18:11;;;;;;;12.73;3.23;;;0.10;99.90;;;;;;6344821;22;20333;-85
2023/03/28 03:20:40;;;;;;;12.23;2.90;;;0.20;99.90;;;;;;6344631;22;20022;-86
2023/03/28 03:23:06;;;;;;;15.07;3.30;;;1.30;99.90;;;;;;6370982;22;20006;-86
2023/03/28 03:25:33;;;;;;;12.20;3.00;;;0.20;99.90;;;;;;6370717;22;20020;-85
2023/03/28 03:27:59;;;;;;;15.20;2.77;;;0.10;99.90;;;;;;6343112;22;20053;-85
2023/03/28 03:30:34;;;;;;;12.60;3.07;;;1.60;99.90;;;;;;6359737;22;20014;-84
2023/03/28 03:33:00;;;;;;;16.70;3.40;;;-0.60;99.90;;;;;;6343697;22;20089;-85
2023/03/28 03:35:32;;;;;;;13.87;3.13;;;-0.20;99.90;;;;;;6343940;22;20098;-85
2023/03/28 03:37:58;;;;;;;12.73;2.97;;;-0.30;99.90;;;;;;6342644;22;20025;-85
2023/03/28 03:40:24;;;;;;;17.37;2.93;;;-0.30;99.90;;;;;;6343643;22;20011;-85
2023/03/28 03:42:50;;;;;;;18.13;3.53;;;-0.30;99.90;;;;;;6343615;22;20342;-85
2023/03/28 03:45:16;;;;;;;12.93;3.00;;;0.90;99.90;;;;;;6342385;22;20019;-85
2023/03/28 03:47:55;;;;;;;;;;;;;;;;;;;;;
2023/03/28 03:50:21;;;;;;;14.00;2.50;;;0.20;99.90;;;;;;6362020;22;20075;-85
2023/03/28 03:53:05;;;;;;;16.33;2.60;;;-0.70;99.90;;;;;;6343404;22;20014;-85
2023/03/28 03:55:31;;;;;;;14.55;3.00;;;0.60;99.90;;;;;;6372048;22;20102;-84
2023/03/28 03:58:00;;;;;;;13.30;2.80;;;-0.80;99.90;;;;;;6370468;22;20036;-85
2023/03/28 04:00:26;;;;;;;14.60;2.83;;;-0.70;99.90;;;;;;6371448;22;20325;-86
2023/03/28 04:02:54;;;;;;;13.37;2.97;;;-0.80;99.90;;;;;;6343072;22;20010;-84
2023/03/28 04:05:22;;;;;;;17.93;3.03;;;-0.80;99.90;;;;;;6369079;22;20056;-84
2023/03/28 04:07:48;;;;;;;15.83;2.70;;;-0.90;99.90;;;;;;6370579;22;20014;-84
2023/03/28 04:10:14;;;;;;;16.57;3.00;;;-0.90;99.90;;;;;;6370685;22;20006;-84
2023/03/28 04:12:39;;;;;;;10.30;2.90;;;-0.90;99.90;;;;;;6342211;22;20018;-85
2023/03/28 04:15:06;;;;;;;14.50;3.53;;;-0.90;99.90;;;;;;6371094;22;20062;-84
2023/03/28 04:17:33;;;;;;;12.70;3.00;;;-0.80;99.90;;;;;;6343357;22;20015;-85
2023/03/28 04:20:01;;;;;;;16.37;3.10;;;-0.80;99.90;;;;;;6341846;22;20015;-85
2023/03/28 04:22:30;;;;;;;14.37;2.97;;;-0.90;99.90;;;;;;6343381;22;20047;-84
2023/03/28 04:25:00;;;;;;;15.57;3.37;;;-1.00;99.90;;;;;;6342947;22;20019;-84
2023/03/28 04:27:28;;;;;;;17.07;2.93;;;-1.00;99.90;;;;;;6342001;22;20015;-85
2023/03/28 04:29:59;;;;;;;13.90;2.93;;;-1.00;99.90;;;;;;6305390;22;20030;-84
2023/03/28 04:32:25;;;;;;;13.83;2.60;;;-1.30;99.90;;;;;;6305209;22;20046;-84
2023/03/28 04:34:50;;;;;;;13.30;2.77;;;-1.10;99.90;;;;;;6280039;22;20019;-84
2023/03/28 04:37:22;;;;;;;13.80;3.50;;;-1.00;99.90;;;;;;6305797;22;20023;-84
2023/03/28 04:40:00;;;;;;;16.30;3.33;;;-1.00;99.90;;;;;;6285001;22;20030;-85
2023/03/28 04:42:26;;;;;;;18.77;3.40;;;-0.90;99.90;;;;;;6328923;22;20022;-85
2023/03/28 04:44:52;;;;;;;15.60;3.40;;;-1.00;99.90;;;;;;6319552;22;20019;-85
2023/03/28 04:47:17;;;;;;;14.03;4.23;;;-0.90;99.90;;;;;;6305386;22;20019;-85
2023/03/28 04:49:47;;;;;;;17.50;3.87;;;-0.90;99.90;;;;;;6306403;22;20015;-86
2023/03/28 04:52:20;;;;;;;21.60;3.83;;;-0.80;99.90;;;;;;6305197;22;20478;-86
2023/03/28 04:54:46;;;;;;;22.10;3.63;;;-0.80;99.90;;;;;;6279377;22;20046;-85
2023/03/28 04:57:12;;;;;;;14.93;3.30;;;-0.80;99.90;;;;;;6279327;22;20056;-85
2023/03/28 04:59:56;;;;;;;15.50;3.83;;;-0.70;99.90;;;;;;6305371;22;20069;-85
2023/03/28 05:02:21;;;;;;;13.73;2.63;;;-0.80;99.90;;;;;;6368652;22;20438;-85
2023/03/28 05:04:47;;;;;;;13.87;2.50;;;-1.00;99.90;;;;;;6370446;22;20060;-85
2023/03/28 05:07:13;;;;;;;21.07;3.10;;;-0.80;99.90;;;;;;6342628;22;20055;-85
2023/03/28 05:09:51;;;;;;;16.27;3.47;;;-0.90;99.90;;;;;;6341554;22;20015;-85
2023/03/28 05:12:16;;;;;;;13.33;2.80;;;-1.00;99.90;;;;;;6341423;22;20021;-85
2023/03/28 05:14:42;;;;;;;15.03;2.90;;;1.10;99.90;;;;;;6341561;22;20342;-85
2023/03/28 05:17:07;;;;;;;16.70;3.27;;;-1.00;99.90;;;;;;6370649;22;20022;-85
2023/03/28 05:19:33;;;;;;;12.73;2.60;;;-0.90;99.90;;;;;;6342652;22;20014;-85
2023/03/28 05:25:24;;;;;;;11.73;2.72;;;-1.60;99.90;;;;;;6370894;22;20019;-85
2023/03/28 05:27:51;;;;;;;12.20;2.80;;;-0.80;99.90;;;;;;6344631;22;20023;-84
2023/03/28 05:30:17;;;;;;;13.67;3.00;;;-0.70;99.90;;;;;;6309540;22;20518;-84
2023/03/28 05:32:43;;;;;;;14.27;3.10;;;-0.80;99.90;;;;;;6311395;22;20018;-86
2023/03/28 05:35:10;;;;;;;15.47;3.10;;;-0.80;99.90;;;;;;6338513;22;20300;-85
2023/03/28 05:37:38;;;;;;;13.00;2.93;;;-0.70;99.90;;;;;;6310662;22;20015;-85
2023/03/28 05:40:09;;;;;;;15.33;3.07;;;-0.10;99.90;;;;;;6311392;22;20019;-86
2023/03/28 05:42:36;;;;;;;11.77;2.63;;;-0.60;99.90;;;;;;6339223;22;20340;-86
2023/03/28 05:45:06;;;;;;;13.77;3.10;;;-0.60;99.90;;;;;;6309835;22;20023;-86
2023/03/28 05:47:34;;;;;;;13.33;2.80;;;-0.60;99.90;;;;;;6339936;22;20021;-86
2023/03/28 05:50:01;;;;;;;12.93;3.23;;;-0.70;99.90;;;;;;6310648;22;20011;-85
2023/03/28 05:52:27;;;;;;;13.73;3.33;;;-0.60;99.90;;;;;;6311078;22;20017;-86
2023/03/28 05:54:54;;;;;;;16.37;4.13;;;-0.50;99.90;;;;;;6310682;22;20463;-85
2023/03/28 05:57:20;;;;;;;16.67;3.30;;;-0.40;99.90;;;;;;6335827;22;20057;-85
2023/03/28 06:00:03;;;;;;;13.63;3.20;;;-0.60;99.90;;;;;;6338908;22;20361;-86
2023/03/28 06:02:29;;;;;;;16.63;5.30;;;-1.10;99.90;;;;;;6339192;22;20007;-86
2023/03/28 06:04:55;;;;;;;42.70;27.33;;;-0.40;99.90;;;;;;6309872;22;20103;-86
2023/03/28 06:07:21;;;;;;;17.50;4.33;;;-0.20;99.90;;;;;;6309456;22;20428;-85
2023/03/28 06:10:03;;;;;;;16.10;6.40;;;1.00;99.90;;;;;;6310884;22;20022;-86
2023/03/28 06:12:29;;;;;;;15.43;4.33;;;-0.10;99.90;;;;;;6337268;22;20011;-86
2023/03/28 06:14:55;;;;;;;30.80;13.07;;;0.00;99.90;;;;;;6338919;22;20018;-88
2023/03/28 06:17:22;;;;;;;14.17;4.00;;;0.00;99.90;;;;;;6341378;22;20380;-83
2023/03/28 06:19:48;;;;;;;16.67;3.60;;;1.20;99.90;;;;;;6341983;22;20377;-83
2023/03/28 06:22:14;;;;;;;16.00;3.90;;;0.10;99.90;;;;;;6346060;22;20071;-82
2023/03/28 06:24:39;;;;;;;20.83;8.03;;;0.20;99.90;;;;;;6317614;22;20090;-82
2023/03/28 06:27:10;;;;;;;17.53;7.53;;;0.30;99.90;;;;;;6314464;22;20064;-83
2023/03/28 06:29:38;;;;;;;15.90;3.77;;;0.00;99.90;;;;;;6304944;22;20015;-84
2023/03/28 06:32:04;;;;;;;12.67;3.73;;;0.20;99.90;;;;;;6305832;22;20744;-83
2023/03/28 06:34:45;;;;;;;12.20;3.47;;;0.50;99.90;;;;;;6304942;22;20051;-85
2023/03/28 06:37:11;;;;;;;15.87;3.53;;;0.30;99.90;;;;;;6305319;22;20107;-84
2023/03/28 06:39:36;;;;;;;13.67;3.90;;;0.40;99.90;;;;;;6306183;22;20463;-84
2023/03/28 06:42:02;;;;;;;12.87;4.43;;;0.60;99.90;;;;;;6306449;22;20064;-84
2023/03/28 06:44:29;;;;;;;15.57;4.90;;;0.70;99.90;;;;;;6306853;22;20057;-83
2023/03/28 06:46:55;;;;;;;14.07;4.27;;;0.80;99.90;;;;;;6304389;22;20027;-82
2023/03/28 06:49:21;;;;;;;17.63;5.77;;;0.90;99.90;;;;;;6307152;22;20127;-82
2023/03/28 06:51:47;;;;;;;14.13;3.90;;;1.00;99.90;;;;;;6304948;22;20491;-81
2023/03/28 06:54:12;;;;;;;15.43;3.57;;;1.20;99.90;;;;;;6305502;22;20015;-82
2023/03/28 06:56:38;;;;;;;13.23;3.20;;;1.30;99.90;;;;;;6307067;22;20026;-82
2023/03/28 06:59:04;;;;;;;15.63;4.30;;;1.50;99.90;;;;;;6305173;22;20423;-82
2023/03/28 07:01:29;;;;;;;11.17;3.50;;;1.60;99.90;;;;;;6304491;22;20020;-82
2023/03/28 07:03:58;;;;;;;11.27;3.10;;;1.80;99.90;;;;;;6307353;22;20011;-82
2023/03/28 07:06:25;;;;;;;13.37;5.00;;;1.90;99.90;;;;;;6307514;22;20007;-82
2023/03/28 07:08:51;;;;;;;15.97;3.83;;;2.00;99.90;;;;;;6306643;22;20069;-82
2023/03/28 07:11:16;;;;;;;16.63;6.53;;;2.20;99.90;;;;;;6307183;22;20015;-81
2023/03/28 07:13:42;;;;;;;15.10;4.67;;;2.20;99.90;;;;;;6307345;22;20098;-82
2023/03/28 07:16:11;;;;;;;14.53;3.77;;;2.20;99.90;;;;;;6305587;22;20079;-82
2023/03/28 07:18:37;;;;;;;11.73;2.87;;;2.30;99.90;;;;;;6305406;22;20108;-82
2023/03/28 07:21:08;;;;;;;14.47;3.47;;;2.30;99.90;;;;;;6305090;22;20019;-82
2023/03/28 07:23:35;;;;;;;16.40;3.30;;;2.40;99.90;;;;;;6306599;22;20023;-82
2023/03/28 07:26:01;;;;;;;13.23;3.10;;;2.40;99.90;;;;;;6313717;22;20007;-82
2023/03/28 07:28:26;;;;;;;12.83;3.70;;;2.50;99.90;;;;;;6337037;22;20058;-82
2023/03/28 07:30:53;;;;;;;8.47;2.70;;;2.60;99.90;;;;;;6310309;22;20029;-83
2023/03/28 07:33:19;;;;;;;11.67;3.07;;;2.70;99.90;;;;;;6337191;22;20334;-83
2023/03/28 07:35:45;;;;;;;10.20;2.73;;;2.80;99.90;;;;;;6309412;22;20011;-83
2023/03/28 07:38:10;;;;;;;12.87;3.00;;;2.90;99.90;;;;;;6310197;22;20022;-84
2023/03/28 07:40:36;;;;;;;11.23;2.20;;;2.90;99.90;;;;;;6338098;22;20011;-83
2023/03/28 07:43:02;;;;;;;14.37;3.10;;;3.00;99.90;;;;;;6309198;22;20018;-82
2023/03/28 07:45:27;;;;;;;13.63;2.50;;;3.00;99.90;;;;;;6311528;22;20396;-83
2023/03/28 07:47:53;;;;;;;14.67;2.70;;;3.10;99.90;;;;;;6322206;22;20018;-82
2023/03/28 07:50:19;;;;;;;12.53;2.63;;;3.20;99.90;;;;;;6340893;22;20342;-82
2023/03/28 07:52:47;;;;;;;10.37;2.20;;;3.30;99.90;;;;;;6312338;22;20328;-81
2023/03/28 07:55:13;;;;;;;12.30;2.90;;;3.50;99.90;;;;;;6332563;22;20003;-81
2023/03/28 07:57:40;;;;;;;12.23;2.60;;;3.60;99.90;;;;;;6316049;22;20011;-82
2023/03/28 08:00:11;;;;;;;14.43;2.80;;;3.80;99.90;;;;;;6339701;22;20028;-83
2023/03/28 08:02:38;;;;;;;11.40;2.63;;;3.90;99.90;;;;;;6312234;22;20049;-82
2023/03/28 08:05:04;;;;;;;10.80;2.70;;;4.00;99.90;;;;;;6311058;22;20018;-82
2023/03/28 08:07:30;;;;;;;8.53;2.27;;;4.10;99.90;;;;;;6312221;22;20015;-83
2023/03/28 08:09:56;;;;;;;11.50;2.70;;;4.30;99.90;;;;;;6311884;22;20446;-83
2023/03/28 08:12:21;;;;;;;11.50;2.30;;;6.00;99.90;;;;;;6310547;22;20395;-83
2023/03/28 08:14:47;;;;;;;12.27;2.23;;;5.70;99.90;;;;;;6311837;22;20338;-83
2023/03/28 08:17:12;;;;;;;11.17;2.87;;;5.00;99.90;;;;;;6311660;22;20042;-82
2023/03/28 08:19:38;;;;;;;8.73;2.10;;;4.90;99.90;;;;;;6311022;22;20454;-82
2023/03/28 08:22:04;;;;;;;12.03;2.37;;;4.90;99.90;;;;;;6311570;22;20011;-83
2023/03/28 08:24:30;;;;;;;10.73;2.20;;;4.90;99.90;;;;;;6339190;22;20019;-83
2023/03/28 08:26:56;;;;;;;9.40;2.30;;;4.90;99.90;;;;;;6338859;22;20017;-82
2023/03/28 08:29:22;;;;;;;9.77;2.10;;;5.00;99.90;;;;;;6311417;22;20015;-83
2023/03/28 08:31:48;;;;;;;12.00;2.20;;;5.10;99.90;;;;;;6338246;22;20034;-83
2023/03/28 08:34:14;;;;;;;9.83;2.63;;;5.20;99.90;;;;;;6339453;22;20018;-83
2023/03/28 08:36:40;;;;;;;31.90;15.67;;;5.30;99.90;;;;;;6339692;22;20011;-83
2023/03/28 08:39:06;;;;;;;22.33;9.13;;;5.30;99.90;;;;;;6310415;22;20085;-83
2023/03/28 08:41:44;;;;;;;12.00;3.70;;;5.30;99.90;;;;;;6311511;22;20042;-83
2023/03/28 08:44:29;;;;;;;11.07;2.60;;;5.40;99.90;;;;;;6339232;22;20019;-85
2023/03/28 08:47:00;;;;;;;9.00;2.23;;;5.50;99.90;;;;;;6310675;22;20011;-83
2023/03/28 08:49:25;;;;;;;10.27;4.07;;;5.40;99.90;;;;;;6339676;22;20091;-84
2023/03/28 08:52:01;;;;;;;10.47;3.10;;;5.60;99.90;;;;;;6339411;22;20010;-84
2023/03/28 08:54:36;;;;;;;13.10;4.87;;;5.50;99.90;;;;;;6310592;22;20114;-84
2023/03/28 08:57:03;;;;;;;11.27;2.50;;;5.70;99.90;;;;;;6311378;22;20022;-84
2023/03/28 08:59:57;;;;;;;9.60;3.83;;;6.10;99.90;;;;;;6311491;22;20011;-85
2023/03/28 09:02:26;;;;;;;14.13;3.03;;;5.60;99.90;;;;;;6339190;22;20018;-84
2023/03/28 09:04:53;;;;;;;9.73;2.10;;;5.70;99.90;;;;;;6309876;22;20056;-84
2023/03/28 09:07:50;;;;;;;11.07;2.20;;;6.00;99.90;;;;;;6309794;22;20014;-83
2023/03/28 09:10:33;;;;;;;10.53;3.40;;;5.60;99.90;;;;;;6338974;22;20072;-83
2023/03/28 09:13:10;;;;;;;10.87;2.73;;;5.50;99.90;;;;;;6310563;22;20015;-83
2023/03/28 09:16:01;;;;;;;9.93;2.90;;;5.70;99.90;;;;;;6338466;22;20097;-83
2023/03/28 09:18:59;;;;;;;10.83;2.83;;;5.80;99.90;;;;;;6311514;22;20416;-84
2023/03/28 09:21:36;;;;;;;9.70;2.33;;;5.80;99.90;;;;;;6318211;22;20098;-84
2023/03/28 09:24:23;;;;;;;11.17;3.03;;;5.80;99.90;;;;;;6314716;22;20015;-85
2023/03/28 09:27:05;;;;;;;7.60;2.20;;;5.80;99.90;;;;;;6344740;22;20025;-83
2023/03/28 09:29:35;;;;;;;9.33;2.10;;;5.90;99.90;;;;;;6314018;22;20029;-83
2023/03/28 09:32:11;;;;;;;10.20;2.37;;;5.80;99.90;;;;;;6338988;22;20014;-83
2023/03/28 09:34:39;;;;;;;19.80;8.03;;;6.30;99.90;;;;;;6311017;22;20086;-83
2023/03/28 09:37:28;;;;;;;11.80;3.23;;;6.90;99.90;;;;;;6309550;22;20053;-82
2023/03/28 09:39:57;;;;;;;10.50;2.10;;;6.40;99.90;;;;;;6310780;22;20081;-84
2023/03/28 09:42:56;;;;;;;10.50;2.43;;;6.50;99.90;;;;;;6337713;22;20006;-85
2023/03/28 09:45:29;;;;;;;9.43;2.60;;;6.70;99.90;;;;;;6325637;22;20015;-84
2023/03/28 09:47:55;;;;;;;8.07;2.17;;;6.80;99.90;;;;;;6369970;22;20022;-85
2023/03/28 09:50:21;;;;;;;11.67;1.93;;;6.80;99.90;;;;;;6341156;22;20011;-84
2023/03/28 09:52:50;;;;;;;7.93;2.83;;;6.90;99.90;;;;;;6370849;22;20079;-85
2023/03/28 09:55:22;;;;;;;15.87;7.97;;;7.20;99.90;;;;;;6342366;22;20510;-85
2023/03/28 09:58:09;;;;;;;13.00;4.53;;;6.90;99.90;;;;;;6342429;22;20014;-85
2023/03/28 10:00:44;;;;;;;8.37;2.07;;;8.20;99.90;;;;;;6342417;22;20014;-85
2023/03/28 10:03:28;;;;;;;14.40;6.30;;;6.70;99.90;;;;;;6368350;22;20071;-84
2023/03/28 10:05:55;;;;;;;10.32;3.13;;;7.70;99.90;;;;;;6341032;22;20014;-85
2023/03/28 10:08:39;;;;;;;10.50;2.73;;;7.00;99.90;;;;;;6367937;22;20022;-85
2023/03/28 10:11:27;;;;;;;13.30;2.85;;;6.70;99.90;;;;;;6366205;22;20006;-83
2023/03/28 10:13:54;;;;;;;10.83;3.53;;;7.20;99.90;;;;;;6366786;22;20327;-86
2023/03/28 10:16:50;;;;;;;8.20;2.90;;;7.40;99.90;;;;;;6368328;22;20014;-88
2023/03/28 10:19:34;;;;;;;6.67;1.70;;;7.30;99.90;;;;;;6300947;22;20346;-85
2023/03/28 10:22:47;;;;;;;7.67;3.30;;;8.30;99.90;;;;;;6369637;22;20018;-85
2023/03/28 10:25:36;;;;;;;8.03;2.00;;;8.00;99.90;;;;;;6274154;22;20014;-86
2023/03/28 10:28:07;;;;;;;7.43;2.03;;;7.10;99.90;;;;;;6342774;22;20022;-84
2023/03/28 10:30:37;;;;;;;7.20;2.00;;;7.40;99.90;;;;;;6342206;22;20140;-85
2023/03/28 10:33:32;;;;;;;6.23;2.10;;;8.10;99.90;;;;;;6369083;22;20010;-84
2023/03/28 10:36:21;;;;;;;5.70;1.60;;;7.80;99.90;;;;;;6369928;22;20018;-83
2023/03/28 10:38:49;;;;;;;8.23;1.90;;;8.10;99.90;;;;;;6369266;22;20018;-85
2023/03/28 10:41:50;;;;;;;8.60;2.72;;;9.40;99.90;;;;;;6342046;22;20103;-84
2023/03/28 10:44:50;;;;;;;12.73;7.45;;;8.20;99.90;;;;;;6342127;22;20015;-85
2023/03/28 10:47:17;;;;;;;6.35;1.70;;;8.20;99.90;;;;;;6379227;22;20068;-85
2023/03/28 10:49:59;;;;;;;10.30;5.80;;;9.80;99.90;;;;;;6335402;22;20075;-84
2023/03/28 10:52:53;;;;;;;10.20;3.30;;;8.50;99.90;;;;;;6311494;22;20015;-85
2023/03/28 10:55:40;;;;;;;12.90;4.75;;;8.90;99.90;;;;;;6306188;22;20443;-84
2023/03/28 10:58:37;;;;;;;14.10;5.03;;;8.50;99.90;;;;;;6319437;22;20060;-86
2023/03/28 11:01:40;;;;;;;8.48;1.95;;;10.60;99.90;;;;;;6310418;22;20015;-88
2023/03/28 11:04:32;;;;;;;8.77;2.25;;;8.90;99.90;;;;;;6307410;22;20027;-87
2023/03/28 11:10:52;;;;;;;;;;;;;;;;;;;;;
2023/03/28 11:17:39;;;;;;;16.38;11.02;;;6.60;99.90;;;;;;6186406;23;20028;-87
2023/03/28 11:20:40;;;;;;;8.75;3.03;;;7.70;99.90;;;;;;6223417;22;20019;-86
2023/03/28 11:23:18;;;;;;;8.00;2.20;;;7.70;99.90;;;;;;6306907;22;20057;-86
2023/03/28 11:26:07;;;;;;;7.93;2.28;;;7.80;99.90;;;;;;6309396;22;20335;-87
2023/03/28 11:28:54;;;;;;;12.68;6.13;;;7.80;99.90;;;;;;6307131;22;20011;-86
2023/03/28 11:31:52;;;;;;;9.02;3.00;;;8.60;99.90;;;;;;6307269;22;20069;-86
2023/03/28 11:34:30;;;;;;;11.95;2.13;;;8.00;99.90;;;;;;6276128;22;20035;-86
2023/03/28 11:37:06;;;;;;;7.07;1.90;;;8.20;99.90;;;;;;6309173;22;20016;-86
2023/03/28 11:39:50;;;;;;;9.20;2.95;;;8.10;99.90;;;;;;6307735;22;20077;-86
2023/03/28 11:42:24;;;;;;;8.70;1.80;;;8.10;99.90;;;;;;6307059;22;20023;-86
2023/03/28 11:44:58;;;;;;;8.23;2.40;;;8.10;99.90;;;;;;6307063;22;20019;-87
2023/03/28 11:47:40;;;;;;;8.38;2.33;;;8.30;99.90;;;;;;6309102;22;20022;-87
2023/03/28 11:50:44;;;;;;;9.45;2.38;;;8.40;99.90;;;;;;6305744;22;20133;-83
2023/03/28 11:53:17;;;;;;;8.48;2.42;;;8.50;99.90;;;;;;6231034;22;20444;-83
2023/03/28 11:55:51;;;;;;;8.98;2.30;;;9.50;99.90;;;;;;6308252;22;20094;-83
2023/03/28 11:58:23;;;;;;;8.05;2.00;;;8.80;99.90;;;;;;6306937;22;20015;-83
2023/03/28 12:01:05;;;;;;;8.63;1.90;;;9.90;99.90;;;;;;6307068;22;20073;-83
2023/03/28 12:03:37;;;;;;;9.98;2.40;;;8.90;99.90;;;;;;6308077;22;20335;-86
2023/03/28 12:06:21;;;;;;;9.65;2.65;;;8.70;99.90;;;;;;6306136;22;20016;-86
2023/03/28 12:09:16;;;;;;;9.68;2.78;;;8.50;99.90;;;;;;6310956;22;20334;-86
2023/03/28 12:15:49;;;;;;;8.10;2.20;;;8.70;99.90;;;;;;6212308;23;20492;-89
2023/03/28 12:18:32;;;;;;;8.38;2.60;;;8.60;99.90;;;;;;6152825;23;20060;-86
2023/03/28 12:21:32;;;;;;;7.63;2.28;;;8.90;99.90;;;;;;6305371;22;20042;-87
2023/03/28 12:24:10;;;;;;;7.80;2.30;;;9.80;99.90;;;;;;6341325;22;20018;-87
2023/03/28 12:27:08;;;;;;;9.02;2.22;;;9.20;99.90;;;;;;6328150;22;20059;-86
2023/03/28 12:29:45;;;;;;;10.82;2.55;;;9.10;99.90;;;;;;6313847;22;20018;-87
2023/03/28 12:32:20;;;;;;;11.45;2.90;;;10.10;99.90;;;;;;6312265;22;20489;-87
2023/03/28 12:34:58;;;;;;;9.15;2.42;;;9.50;99.90;;;;;;6310223;22;20316;-83
2023/03/28 12:37:49;;;;;;;8.30;2.70;;;10.20;99.90;;;;;;6338695;22;20124;-89
2023/03/28 12:40:40;;;;;;;11.15;2.60;;;9.40;99.90;;;;;;6311268;22;20050;-88
2023/03/28 12:43:16;;;;;;;10.60;2.90;;;9.20;99.90;;;;;;6311589;22;20025;-88
2023/03/28 12:46:33;;;;;;;10.88;4.50;;;9.30;99.90;;;;;;6338119;22;20101;-87
2023/03/28 12:49:27;;;;;;;8.35;2.78;;;9.00;99.90;;;;;;6304777;22;20039;-88
2023/03/28 12:52:29;;;;;;;6.93;2.42;;;9.10;99.90;;;;;;6306360;22;20020;-88
2023/03/28 12:55:19;;;;;;;16.55;6.40;;;9.10;99.90;;;;;;6295905;22;20011;-87
2023/03/28 12:58:32;;;;;;;10.35;3.78;;;9.70;99.90;;;;;;6307151;22;20022;-87
2023/03/28 13:01:48;;;;;;;11.75;3.45;;;9.30;99.80;;;;;;6198331;22;20472;-87
2023/03/28 13:04:59;;;;;;;9.75;2.83;;;9.60;99.90;;;;;;6305550;22;20019;-88
2023/03/28 13:07:34;;;;;;;8.63;3.08;;;9.40;99.90;;;;;;6305364;22;20050;-87
2023/03/28 13:10:31;;;;;;;13.23;4.07;;;10.40;99.90;;;;;;6308082;22;20011;-88
2023/03/28 13:13:38;;;;;;;;;;;;;;;;;;;;;
2023/03/28 13:16:40;;;;;;;10.20;2.50;;;9.60;99.90;;;;;;6254800;22;20015;-87
2023/03/28 13:19:59;;;;;;;7.93;2.78;;;10.80;99.90;;;;;;6305700;22;20098;-87
2023/03/28 13:26:23;;;;;;;8.63;2.58;;;9.10;99.90;;;;;;6306247;22;20390;-87
2023/03/28 13:29:20;;;;;;;8.80;2.83;;;9.10;99.90;;;;;;6305140;22;20019;-91
2023/03/28 13:34:39;;;;;;;8.88;3.30;;;9.20;99.90;;;;;;6306882;22;20047;-88
2023/03/28 13:37:35;;;;;;;13.43;2.63;;;9.40;99.90;;;;;;6308121;22;20029;-89
2023/03/28 13:41:25;;;;;;;10.25;2.72;;;9.00;99.90;;;;;;6313728;22;20342;-87
2023/03/28 13:43:58;;;;;;;10.57;4.78;;;9.20;99.90;;;;;;6312857;22;20500;-88
2023/03/28 13:47:08;;;;;;;12.57;5.28;;;10.40;99.90;;;;;;6309597;22;20026;-88
2023/03/28 13:49:52;;;;;;;10.02;2.70;;;9.00;99.90;;;;;;6260003;22;20051;-88
2023/03/28 13:52:48;;;;;;;9.57;2.85;;;10.10;99.90;;;;;;6308065;22;20042;-89
2023/03/28 13:55:36;;;;;;;10.23;2.95;;;9.20;99.90;;;;;;6322409;22;19999;-88